Time;durP1;ratioP1;P1;durP2;ratioP2;P2;SDS_P1;SDS_P2;PMS_P1;PMS_P2;Temp;Humidity;BMP_temperature;BMP_pressure;BME280_temperature;BME280_humidity;BME280_pressure;Samples;Min_cycle;Max_cycle;Signal;HPM_P1;HPM_P2
2023/08/28 04:04:48;;;;;;;2.07;1.97;;;14.70;99.90;;;;;;6239736;22;20406;-87
2023/08/28 04:07:24;;;;;;;2.30;2.10;;;14.70;99.90;;;;;;4985922;28;20444;-62
2023/08/28 04:09:50;;;;;;;1.83;1.73;;;14.70;99.90;;;;;;4980761;28;20397;-62
2023/08/28 04:12:15;;;;;;;2.40;1.77;;;14.70;99.90;;;;;;4977813;28;20389;-63
2023/08/28 04:14:41;;;;;;;1.50;1.40;;;14.70;99.90;;;;;;4973784;28;20216;-63
2023/08/28 04:17:07;;;;;;;1.80;1.43;;;14.70;99.90;;;;;;4958571;29;20228;-63
2023/08/28 04:19:32;;;;;;;1.87;1.30;;;14.70;99.90;;;;;;4958789;29;20460;-64
2023/08/28 04:21:58;;;;;;;1.90;1.80;;;14.70;99.90;;;;;;4958415;29;20173;-63
2023/08/28 04:24:23;;;;;;;1.90;1.80;;;14.60;99.90;;;;;;4958296;28;20181;-63
2023/08/28 04:26:49;;;;;;;1.60;1.60;;;14.60;99.90;;;;;;4958430;28;20169;-63
2023/08/28 04:29:15;;;;;;;1.70;1.60;;;14.70;99.90;;;;;;4958414;29;20173;-63
2023/08/28 04:31:40;;;;;;;2.07;1.90;;;14.70;99.90;;;;;;4956801;29;20188;-63
2023/08/28 04:34:06;;;;;;;2.10;2.00;;;14.60;99.90;;;;;;4956936;28;20185;-64
2023/08/28 04:36:31;;;;;;;3.43;1.97;;;14.60;99.90;;;;;;4956062;28;20212;-63
2023/08/28 04:38:57;;;;;;;1.90;1.80;;;14.60;99.90;;;;;;4958032;29;20659;-63
2023/08/28 04:41:22;;;;;;;3.17;2.93;;;14.50;99.90;;;;;;4956572;29;20183;-63
2023/08/28 04:43:48;;;;;;;2.60;2.50;;;14.50;99.90;;;;;;4957662;29;20562;-63
2023/08/28 04:46:14;;;;;;;2.10;1.57;;;14.50;99.90;;;;;;4958096;28;20188;-64
2023/08/28 04:48:39;;;;;;;1.60;1.53;;;14.50;99.90;;;;;;4958011;28;20219;-63
2023/08/28 04:51:05;;;;;;;2.07;1.93;;;14.50;99.90;;;;;;4957831;29;20176;-63
2023/08/28 04:53:30;;;;;;;2.47;1.70;;;14.50;99.90;;;;;;4957771;29;20176;-63
2023/08/28 04:55:56;;;;;;;1.73;1.70;;;14.50;99.90;;;;;;4968487;28;20646;-63
2023/08/28 04:58:22;;;;;;;2.67;1.97;;;14.60;99.90;;;;;;4977013;28;20203;-63
2023/08/28 05:00:47;;;;;;;1.83;1.73;;;14.60;99.90;;;;;;4977058;28;20175;-63
2023/08/28 05:03:13;;;;;;;2.80;2.60;;;14.60;99.90;;;;;;4977117;28;20187;-63
2023/08/28 05:05:39;;;;;;;2.03;1.90;;;14.60;99.90;;;;;;4976361;28;20192;-63
2023/08/28 05:08:05;;;;;;;1.80;1.70;;;14.60;99.90;;;;;;4976508;28;20195;-63
2023/08/28 05:10:31;;;;;;;3.10;2.13;;;14.60;99.90;;;;;;4976812;28;20506;-63
2023/08/28 05:12:56;;;;;;;2.13;1.97;;;14.70;99.90;;;;;;4976784;28;20864;-63
2023/08/28 05:15:22;;;;;;;2.53;2.03;;;14.70;99.90;;;;;;4976182;28;20442;-63
2023/08/28 05:17:48;;;;;;;2.50;1.60;;;14.60;99.90;;;;;;4959146;28;20200;-63
2023/08/28 05:20:14;;;;;;;2.50;2.30;;;14.60;99.90;;;;;;4975785;28;20165;-63
2023/08/28 05:22:40;;;;;;;2.67;1.77;;;14.70;99.90;;;;;;4976638;28;20180;-63
2023/08/28 05:25:06;;;;;;;2.27;2.07;;;14.60;99.90;;;;;;4958921;28;20674;-64
2023/08/28 05:27:31;;;;;;;2.63;2.43;;;14.60;99.90;;;;;;4959239;28;20423;-63
2023/08/28 05:29:57;;;;;;;2.87;2.00;;;14.60;99.90;;;;;;4976604;28;20415;-63
2023/08/28 05:32:22;;;;;;;2.10;2.00;;;14.60;99.90;;;;;;4976509;28;20176;-63
2023/08/28 05:34:48;;;;;;;3.77;2.20;;;14.60;99.90;;;;;;4975906;28;20192;-63
2023/08/28 05:37:13;;;;;;;3.43;2.00;;;14.60;99.90;;;;;;4976334;28;20605;-63
2023/08/28 05:39:39;;;;;;;2.23;2.00;;;14.70;99.90;;;;;;4976327;28;20207;-62
2023/08/28 05:42:05;;;;;;;2.87;2.67;;;14.70;99.90;;;;;;4976101;28;20635;-68
2023/08/28 05:44:30;;;;;;;2.43;2.23;;;14.70;99.90;;;;;;4975827;28;20172;-64
2023/08/28 05:46:56;;;;;;;2.50;2.30;;;14.70;99.90;;;;;;4976801;28;20176;-63
2023/08/28 05:49:21;;;;;;;3.90;2.07;;;14.70;99.90;;;;;;4976055;28;20523;-63
2023/08/28 05:51:47;;;;;;;2.87;2.63;;;14.80;99.90;;;;;;4976220;28;20187;-61
2023/08/28 05:54:12;;;;;;;2.40;2.20;;;14.80;99.90;;;;;;4975855;28;20190;-61
2023/08/28 05:56:38;;;;;;;2.90;2.60;;;14.80;99.90;;;;;;4974993;28;20287;-62
2023/08/28 05:59:04;;;;;;;2.90;2.70;;;14.80;99.90;;;;;;4975643;28;20204;-62
2023/08/28 06:01:29;;;;;;;3.37;3.17;;;14.90;99.90;;;;;;4975989;28;20186;-62
2023/08/28 06:03:56;;;;;;;3.70;2.97;;;14.90;99.90;;;;;;4958138;28;20542;-62
2023/08/28 06:06:23;;;;;;;4.27;3.37;;;14.90;99.90;;;;;;4975284;28;20239;-59
2023/08/28 06:08:48;;;;;;;2.67;2.47;;;14.90;99.90;;;;;;4954828;29;20436;-62
2023/08/28 06:11:14;;;;;;;3.30;3.03;;;14.90;99.90;;;;;;4956553;28;20920;-66
2023/08/28 06:13:40;;;;;;;3.53;3.33;;;15.00;99.90;;;;;;4956037;29;20256;-61
2023/08/28 06:16:06;;;;;;;3.00;2.80;;;14.90;99.90;;;;;;4956172;28;20192;-63
2023/08/28 06:18:32;;;;;;;2.70;2.47;;;14.90;99.90;;;;;;4957731;28;20291;-61
2023/08/28 06:20:58;;;;;;;3.67;3.37;;;15.00;99.90;;;;;;4964151;28;20416;-61
2023/08/28 06:23:24;;;;;;;2.60;2.40;;;15.00;99.90;;;;;;4956246;28;20474;-64
2023/08/28 06:25:49;;;;;;;3.57;3.27;;;15.00;99.90;;;;;;4973516;28;20527;-63
2023/08/28 06:28:15;;;;;;;5.13;2.77;;;15.00;99.90;;;;;;4975439;28;20306;-61
2023/08/28 06:30:40;;;;;;;3.80;3.50;;;15.00;99.90;;;;;;4973986;28;20188;-62
2023/08/28 06:33:06;;;;;;;3.57;3.27;;;15.00;99.90;;;;;;4972221;28;20192;-61
2023/08/28 06:35:32;;;;;;;3.57;3.27;;;15.00;99.90;;;;;;4970287;28;20299;-61
2023/08/28 06:37:58;;;;;;;3.00;2.80;;;15.00;99.90;;;;;;4955947;28;20192;-60
2023/08/28 06:40:24;;;;;;;2.30;2.10;;;15.10;99.90;;;;;;4972603;28;20454;-62
2023/08/28 06:42:49;;;;;;;3.60;2.33;;;15.00;99.90;;;;;;4975183;28;20439;-63
2023/08/28 06:45:15;;;;;;;2.90;2.70;;;15.10;99.90;;;;;;4974142;28;20215;-61
2023/08/28 06:47:40;;;;;;;2.57;2.37;;;15.10;99.90;;;;;;4974848;28;20172;-62
2023/08/28 06:50:06;;;;;;;4.00;3.63;;;15.20;99.90;;;;;;4975041;28;20187;-61
2023/08/28 06:52:32;;;;;;;4.37;3.30;;;15.30;99.90;;;;;;4974836;28;20255;-61
2023/08/28 06:54:58;;;;;;;3.40;3.10;;;15.30;99.90;;;;;;4974475;28;20738;-62
2023/08/28 06:57:23;;;;;;;3.30;3.10;;;15.30;99.90;;;;;;4969111;28;20188;-63
2023/08/28 06:59:49;;;;;;;4.30;2.90;;;15.30;99.90;;;;;;4974306;28;20211;-62
2023/08/28 07:02:16;;;;;;;2.83;2.63;;;15.20;99.90;;;;;;4974825;28;20270;-62
2023/08/28 07:04:42;;;;;;;3.23;2.87;;;15.20;99.90;;;;;;4957065;28;20459;-62
2023/08/28 07:07:08;;;;;;;3.43;3.10;;;15.20;99.90;;;;;;4974663;28;20725;-62
2023/08/28 07:09:33;;;;;;;2.57;2.37;;;15.20;99.90;;;;;;4974757;28;20193;-61
2023/08/28 07:11:59;;;;;;;7.83;3.23;;;15.20;99.90;;;;;;4974177;28;20650;-63
2023/08/28 07:14:25;;;;;;;3.73;3.43;;;15.20;99.90;;;;;;4974097;28;20227;-61
2023/08/28 07:16:51;;;;;;;4.20;3.10;;;15.20;99.90;;;;;;4974708;28;20646;-62
2023/08/28 07:19:16;;;;;;;4.00;3.70;;;15.30;99.90;;;;;;4974197;28;20498;-61
2023/08/28 07:21:42;;;;;;;3.60;3.23;;;15.30;99.90;;;;;;4974166;28;20506;-62
2023/08/28 07:24:08;;;;;;;4.10;3.67;;;15.30;99.90;;;;;;4974193;28;20180;-62
2023/08/28 07:26:33;;;;;;;3.00;2.70;;;15.30;99.90;;;;;;4974320;28;20242;-62
2023/08/28 07:28:59;;;;;;;3.27;2.97;;;15.30;99.90;;;;;;4974330;28;20401;-62
2023/08/28 07:31:24;;;;;;;7.90;3.40;;;15.40;99.90;;;;;;4974459;28;20176;-62
2023/08/28 07:33:50;;;;;;;4.00;3.53;;;15.40;99.90;;;;;;4973986;28;20267;-62
2023/08/28 07:36:23;;;;;;;3.50;3.20;;;15.40;99.90;;;;;;4974389;28;20215;-63
2023/08/28 07:38:49;;;;;;;5.17;4.07;;;15.40;99.90;;;;;;4974273;28;20610;-61
2023/08/28 07:41:16;;;;;;;3.77;3.47;;;15.40;99.90;;;;;;4956863;28;20486;-64
2023/08/28 07:43:44;;;;;;;3.30;3.00;;;15.50;99.90;;;;;;4977281;28;20796;-63
2023/08/28 07:46:09;;;;;;;3.93;3.63;;;15.60;99.90;;;;;;4976980;28;20522;-68
2023/08/28 07:48:35;;;;;;;5.50;3.53;;;15.60;99.90;;;;;;4977912;28;20578;-61
2023/08/28 07:51:00;;;;;;;6.83;5.90;;;15.70;99.90;;;;;;4969565;28;20734;-63
2023/08/28 07:53:26;;;;;;;5.53;4.77;;;15.70;99.90;;;;;;4958800;29;20536;-63
2023/08/28 07:55:52;;;;;;;4.03;3.60;;;15.80;99.90;;;;;;4958205;28;20210;-64
2023/08/28 07:58:18;;;;;;;4.23;3.73;;;16.00;99.90;;;;;;4958789;28;20201;-64
2023/08/28 08:00:44;;;;;;;3.73;2.90;;;16.10;99.90;;;;;;4963215;28;20584;-63
2023/08/28 08:03:10;;;;;;;3.40;3.10;;;16.30;99.90;;;;;;4978001;28;20388;-63
2023/08/28 08:05:36;;;;;;;3.47;3.27;;;16.40;99.90;;;;;;4977564;28;20464;-63
2023/08/28 08:08:01;;;;;;;3.00;2.73;;;16.40;99.90;;;;;;4977523;28;20252;-61
2023/08/28 08:10:27;;;;;;;1.70;1.60;;;16.40;99.90;;;;;;4977734;28;20258;-62
2023/08/28 08:12:53;;;;;;;3.00;2.37;;;16.30;99.90;;;;;;4977549;28;20521;-62
2023/08/28 08:15:18;;;;;;;2.47;2.30;;;16.40;99.90;;;;;;4977045;28;20206;-61
2023/08/28 08:17:44;;;;;;;2.60;2.40;;;16.40;99.90;;;;;;4977791;28;20211;-61
2023/08/28 08:20:10;;;;;;;3.10;2.80;;;16.30;99.90;;;;;;4977457;28;20178;-60
2023/08/28 08:22:40;;;;;;;2.23;2.13;;;16.50;99.90;;;;;;4960098;28;20629;-62
2023/08/28 08:25:07;;;;;;;2.40;2.20;;;16.50;99.90;;;;;;4977020;28;20421;-64
2023/08/28 08:27:33;;;;;;;1.80;1.50;;;16.70;99.90;;;;;;4977379;28;20468;-66
2023/08/28 08:29:58;;;;;;;2.13;2.03;;;16.80;99.90;;;;;;4977319;28;20808;-62
2023/08/28 08:32:24;;;;;;;1.83;1.73;;;16.90;99.90;;;;;;4977291;28;20457;-61
2023/08/28 08:34:50;;;;;;;1.90;1.80;;;17.00;99.90;;;;;;4976865;28;20188;-62
2023/08/28 08:37:15;;;;;;;2.13;2.03;;;17.20;99.90;;;;;;4977360;28;20581;-62
2023/08/28 08:39:42;;;;;;;1.67;1.50;;;17.20;99.90;;;;;;4977148;28;20236;-60
2023/08/28 08:42:08;;;;;;;1.10;1.10;;;17.40;99.90;;;;;;4976982;28;20542;-62
2023/08/28 08:44:34;;;;;;;1.90;1.80;;;17.40;99.90;;;;;;4976886;28;20412;-62
2023/08/28 08:47:03;;;;;;;1.03;1.03;;;17.50;99.90;;;;;;4977150;28;20389;-62
2023/08/28 08:49:32;;;;;;;1.53;1.43;;;17.60;99.90;;;;;;4977059;28;20909;-62
2023/08/28 08:52:00;;;;;;;1.83;1.40;;;17.70;99.90;;;;;;4977064;28;20423;-66
2023/08/28 08:54:34;;;;;;;1.03;1.03;;;17.70;99.90;;;;;;4975246;28;20498;-61
2023/08/28 08:57:04;;;;;;;1.10;0.90;;;17.50;99.90;;;;;;4976593;28;20481;-61
2023/08/28 08:59:32;;;;;;;1.23;1.23;;;17.40;99.90;;;;;;4976982;28;20475;-62
2023/08/28 09:02:02;;;;;;;1.77;1.53;;;17.30;99.90;;;;;;4976480;28;20395;-61
2023/08/28 09:04:28;;;;;;;0.77;0.77;;;17.30;99.90;;;;;;4976433;28;20419;-60
2023/08/28 09:06:55;;;;;;;1.40;1.20;;;17.20;99.90;;;;;;4976766;28;20876;-60
2023/08/28 09:09:21;;;;;;;1.00;1.00;;;17.30;99.90;;;;;;4977028;28;20420;-62
2023/08/28 09:11:48;;;;;;;1.03;1.03;;;17.30;99.90;;;;;;4976456;28;20431;-62
2023/08/28 09:14:14;;;;;;;1.53;1.43;;;17.40;99.90;;;;;;4976591;28;20711;-62
2023/08/28 09:16:41;;;;;;;1.20;1.10;;;17.50;99.90;;;;;;4976531;28;20438;-62
2023/08/28 09:19:08;;;;;;;1.50;1.40;;;17.50;99.90;;;;;;4976677;28;20426;-62
2023/08/28 09:21:40;;;;;;;1.27;1.17;;;17.60;99.90;;;;;;4977162;28;20386;-62
2023/08/28 09:24:11;;;;;;;0.97;0.97;;;17.60;99.90;;;;;;4975924;28;20776;-62
2023/08/28 09:26:41;;;;;;;1.03;0.97;;;17.50;99.90;;;;;;4975804;28;20414;-62
2023/08/28 09:29:08;;;;;;;1.30;1.27;;;17.50;99.90;;;;;;4976204;28;20754;-62
2023/08/28 09:31:42;;;;;;;0.93;0.83;;;17.50;99.90;;;;;;4976590;28;20412;-62
2023/08/28 09:34:08;;;;;;;1.27;1.17;;;17.50;99.90;;;;;;4976116;28;20403;-62
2023/08/28 09:36:35;;;;;;;1.23;1.13;;;17.60;99.90;;;;;;4976029;28;20811;-61
2023/08/28 09:39:06;;;;;;;0.80;0.80;;;17.60;99.90;;;;;;4976080;28;20849;-67
2023/08/28 09:41:42;;;;;;;3.60;1.57;;;17.60;99.90;;;;;;4976510;28;20385;-63
2023/08/28 09:44:09;;;;;;;1.67;1.57;;;17.60;99.90;;;;;;4975491;28;20405;-62
2023/08/28 09:46:36;;;;;;;1.57;1.43;;;17.70;99.90;;;;;;4976117;28;20423;-66
2023/08/28 09:49:02;;;;;;;1.90;1.50;;;17.80;99.90;;;;;;4976116;28;20408;-63
2023/08/28 09:51:41;;;;;;;1.27;1.17;;;17.90;99.90;;;;;;4976073;28;20391;-62
2023/08/28 09:54:08;;;;;;;0.80;0.80;;;18.10;99.90;;;;;;4975678;28;20180;-63
2023/08/28 09:56:35;;;;;;;1.20;1.10;;;18.00;99.90;;;;;;4975803;28;20451;-65
2023/08/28 09:59:03;;;;;;;1.57;1.47;;;18.10;99.90;;;;;;4975612;28;20467;-63
2023/08/28 10:01:34;;;;;;;1.80;1.20;;;18.10;99.90;;;;;;4957996;28;20401;-62
2023/08/28 10:04:03;;;;;;;0.90;0.90;;;18.00;99.90;;;;;;4974818;28;20402;-62
2023/08/28 10:06:30;;;;;;;0.97;0.97;;;18.20;99.90;;;;;;4973686;28;20434;-62
2023/08/28 10:09:00;;;;;;;1.10;1.10;;;18.30;99.90;;;;;;4975648;28;20739;-62
2023/08/28 10:11:37;;;;;;;0.90;0.90;;;18.60;99.90;;;;;;4975852;28;20383;-61
2023/08/28 10:14:04;;;;;;;1.10;1.10;;;18.70;99.90;;;;;;4975493;28;20386;-63
2023/08/28 10:16:34;;;;;;;1.20;1.10;;;18.90;99.90;;;;;;4975223;28;20510;-62
2023/08/28 10:19:06;;;;;;;1.47;0.80;;;19.10;99.90;;;;;;4958080;28;20882;-62
2023/08/28 10:21:33;;;;;;;0.70;0.70;;;19.30;99.90;;;;;;4975869;28;20442;-64
2023/08/28 10:24:00;;;;;;;0.73;0.73;;;19.50;99.90;;;;;;4974866;28;20772;-64
2023/08/28 10:26:26;;;;;;;3.47;1.07;;;19.60;99.90;;;;;;4958006;28;20646;-62
2023/08/28 10:28:53;;;;;;;0.90;0.90;;;19.80;99.90;;;;;;4975591;28;20482;-61
2023/08/28 10:31:20;;;;;;;1.20;1.20;;;19.90;99.90;;;;;;4975047;28;20494;-61
2023/08/28 10:33:48;;;;;;;0.90;0.90;;;19.70;99.90;;;;;;4975141;28;20386;-60
2023/08/28 10:36:25;;;;;;;0.80;0.80;;;19.70;99.90;;;;;;4957973;28;20466;-61
2023/08/28 10:39:13;;;;;;;0.93;0.93;;;19.80;99.90;;;;;;4973560;28;20994;-61
2023/08/28 10:41:40;;;;;;;1.13;1.03;;;20.20;99.90;;;;;;4956714;28;20438;-62
2023/08/28 10:44:08;;;;;;;0.73;0.73;;;20.30;99.90;;;;;;4957293;28;20409;-62
2023/08/28 10:46:41;;;;;;;2.60;1.43;;;20.30;99.90;;;;;;4957425;28;20956;-63
2023/08/28 10:49:13;;;;;;;1.20;1.10;;;20.40;99.90;;;;;;4957914;28;20429;-62
2023/08/28 10:51:44;;;;;;;0.80;0.80;;;20.30;99.90;;;;;;4957845;28;20458;-62
2023/08/28 10:54:11;;;;;;;1.23;1.13;;;20.20;99.90;;;;;;4957639;28;20398;-60
2023/08/28 10:56:38;;;;;;;1.50;1.40;;;20.10;99.90;;;;;;4957621;28;20538;-62
2023/08/28 10:59:20;;;;;;;0.93;0.93;;;20.10;99.90;;;;;;4973769;28;20533;-61
2023/08/28 11:01:55;;;;;;;2.00;0.83;;;20.10;99.90;;;;;;4974369;28;20742;-61
2023/08/28 11:04:22;;;;;;;0.90;0.90;;;19.90;99.90;;;;;;4974730;28;20425;-61
2023/08/28 11:06:48;;;;;;;0.90;0.90;;;20.00;99.90;;;;;;4974509;28;20432;-60
2023/08/28 11:09:29;;;;;;;0.87;0.87;;;19.90;99.90;;;;;;4974833;28;20390;-60
2023/08/28 11:11:57;;;;;;;0.90;0.90;;;20.00;99.90;;;;;;4974643;28;20464;-62
2023/08/28 11:14:23;;;;;;;1.60;1.50;;;20.00;99.90;;;;;;4973902;28;20397;-60
2023/08/28 11:17:11;;;;;;;1.90;1.50;;;20.00;99.90;;;;;;4973787;28;20439;-62
2023/08/28 11:19:54;;;;;;;0.80;0.80;;;20.00;99.90;;;;;;4974229;28;20474;-63
2023/08/28 11:22:35;;;;;;;1.20;1.20;;;19.90;99.90;;;;;;4974762;28;20879;-62
2023/08/28 11:25:04;;;;;;;1.00;1.00;;;19.70;99.90;;;;;;4973798;28;20434;-62
2023/08/28 11:27:40;;;;;;;0.93;0.73;;;19.60;99.90;;;;;;4974626;28;20378;-61
2023/08/28 11:30:07;;;;;;;0.93;0.90;;;19.60;99.90;;;;;;4974313;28;20429;-62
2023/08/28 11:32:38;;;;;;;0.90;0.90;;;19.60;99.90;;;;;;4974709;28;20441;-61
2023/08/28 11:35:08;;;;;;;1.07;1.07;;;19.60;99.90;;;;;;4974033;28;20445;-61
2023/08/28 11:37:42;;;;;;;0.90;0.90;;;19.70;99.90;;;;;;4974254;28;20514;-59
2023/08/28 11:40:09;;;;;;;0.80;0.80;;;19.70;99.90;;;;;;4974363;28;20526;-61
2023/08/28 11:42:36;;;;;;;0.90;0.90;;;19.80;99.90;;;;;;4974810;28;20502;-59
2023/08/28 11:45:04;;;;;;;1.13;1.00;;;19.90;99.90;;;;;;4974127;28;20462;-62
2023/08/28 11:47:30;;;;;;;1.17;0.70;;;20.00;99.90;;;;;;4974426;28;20866;-61
2023/08/28 11:49:57;;;;;;;0.77;0.77;;;20.00;99.90;;;;;;4966280;28;20423;-61
2023/08/28 11:52:23;;;;;;;0.60;0.60;;;20.10;99.90;;;;;;4971787;28;20420;-60
2023/08/28 11:54:49;;;;;;;0.80;0.80;;;20.20;99.90;;;;;;4973687;28;20921;-61
2023/08/28 11:57:16;;;;;;;1.10;1.00;;;20.20;99.90;;;;;;4974468;28;20772;-62
2023/08/28 11:59:44;;;;;;;0.80;0.80;;;20.10;99.90;;;;;;4973862;28;20422;-61
2023/08/28 12:02:13;;;;;;;0.63;0.63;;;20.10;99.90;;;;;;4974185;28;20459;-61
2023/08/28 12:04:42;;;;;;;0.60;0.60;;;20.10;99.90;;;;;;4973878;28;20428;-61
2023/08/28 12:07:18;;;;;;;0.70;0.60;;;19.90;99.90;;;;;;4974161;28;20444;-60
2023/08/28 12:09:46;;;;;;;0.60;0.60;;;19.70;99.90;;;;;;4973593;28;20459;-65
2023/08/28 12:12:14;;;;;;;0.50;0.50;;;19.60;99.90;;;;;;4973650;28;20790;-63
2023/08/28 12:14:45;;;;;;;1.17;1.07;;;19.50;99.90;;;;;;4973738;28;20435;-62
2023/08/28 12:17:22;;;;;;;0.80;0.80;;;19.30;99.90;;;;;;4974227;28;20413;-63
2023/08/28 12:19:51;;;;;;;0.70;0.70;;;19.30;99.90;;;;;;4974254;28;20524;-63
2023/08/28 12:22:20;;;;;;;0.53;0.53;;;19.10;99.90;;;;;;4973784;28;20910;-62
2023/08/28 12:24:48;;;;;;;0.70;0.70;;;19.10;99.90;;;;;;4973644;28;20399;-61
2023/08/28 12:27:16;;;;;;;0.73;0.73;;;19.00;99.90;;;;;;4974136;28;20410;-61
2023/08/28 12:29:42;;;;;;;0.70;0.70;;;18.90;99.90;;;;;;4977035;28;20472;-62
2023/08/28 12:32:19;;;;;;;0.90;0.90;;;18.90;99.90;;;;;;4977537;28;20880;-61
2023/08/28 12:34:48;;;;;;;1.20;1.10;;;18.70;99.90;;;;;;4976529;28;20575;-64
2023/08/28 12:37:15;;;;;;;1.43;1.10;;;18.70;99.90;;;;;;4976498;28;20501;-60
2023/08/28 12:39:49;;;;;;;1.07;0.97;;;18.70;99.90;;;;;;4977146;28;20557;-65
2023/08/28 12:42:16;;;;;;;0.97;0.97;;;18.60;99.90;;;;;;4977195;28;20390;-61
2023/08/28 12:44:43;;;;;;;0.73;0.73;;;18.50;99.90;;;;;;4977019;28;20435;-60
2023/08/28 12:47:17;;;;;;;0.60;0.60;;;18.40;99.90;;;;;;4977279;28;20468;-60
2023/08/28 12:49:43;;;;;;;0.90;0.90;;;18.40;99.90;;;;;;4977143;28;20489;-60
2023/08/28 12:52:11;;;;;;;0.77;0.77;;;18.30;99.90;;;;;;4976582;28;20441;-61
2023/08/28 12:54:40;;;;;;;1.23;1.10;;;18.30;99.90;;;;;;4976431;28;20493;-61
2023/08/28 12:57:07;;;;;;;0.90;0.90;;;18.20;99.90;;;;;;4977367;28;20419;-60
2023/08/28 12:59:33;;;;;;;1.20;1.20;;;18.20;99.90;;;;;;4977293;28;20470;-60
2023/08/28 13:01:59;;;;;;;1.00;1.00;;;18.30;99.90;;;;;;4977141;28;20383;-61
2023/08/28 13:04:26;;;;;;;1.20;1.10;;;18.30;99.90;;;;;;4976549;28;20382;-61
2023/08/28 13:06:52;;;;;;;1.07;1.07;;;18.20;99.90;;;;;;4976930;28;20922;-60
2023/08/28 13:09:19;;;;;;;1.40;1.30;;;18.10;99.90;;;;;;4977079;28;20768;-60
2023/08/28 13:11:45;;;;;;;0.97;0.97;;;18.20;99.90;;;;;;4977007;28;20495;-61
2023/08/28 13:14:11;;;;;;;1.00;1.00;;;18.20;99.90;;;;;;4976086;28;20511;-60
2023/08/28 13:16:36;;;;;;;1.90;1.80;;;18.20;99.90;;;;;;4976791;28;20258;-60
2023/08/28 13:19:03;;;;;;;0.63;0.63;;;18.20;99.90;;;;;;4976798;28;20434;-60
2023/08/28 13:21:32;;;;;;;1.00;1.00;;;18.20;99.90;;;;;;4975347;28;20269;-60
2023/08/28 13:23:58;;;;;;;1.03;1.03;;;18.10;99.90;;;;;;4976056;28;20426;-61
2023/08/28 13:26:23;;;;;;;1.00;1.00;;;18.10;99.90;;;;;;4976645;28;20464;-61
2023/08/28 13:28:50;;;;;;;0.90;0.90;;;18.10;99.90;;;;;;4976644;28;20585;-61
2023/08/28 13:31:16;;;;;;;0.83;0.83;;;18.10;99.90;;;;;;4976318;28;20184;-61
2023/08/28 13:33:42;;;;;;;0.70;0.70;;;18.00;99.90;;;;;;4976196;28;20401;-61
2023/08/28 13:36:08;;;;;;;0.97;0.97;;;18.00;99.90;;;;;;4975840;28;20578;-61
2023/08/28 13:38:34;;;;;;;0.80;0.80;;;17.90;99.90;;;;;;4976238;28;20538;-61
2023/08/28 13:41:03;;;;;;;0.97;0.97;;;17.90;99.90;;;;;;4975779;28;20631;-60
2023/08/28 13:43:29;;;;;;;0.80;0.80;;;17.80;99.90;;;;;;4976231;28;20491;-59
2023/08/28 13:45:55;;;;;;;1.03;1.03;;;17.90;99.90;;;;;;4975978;28;20908;-61
2023/08/28 13:48:22;;;;;;;0.80;0.80;;;17.90;99.90;;;;;;4975952;28;20431;-60
2023/08/28 13:50:52;;;;;;;0.90;0.90;;;17.80;99.90;;;;;;4975857;28;20416;-61
2023/08/28 13:53:21;;;;;;;0.77;0.70;;;17.90;99.90;;;;;;4976272;28;20429;-61
2023/08/28 13:55:50;;;;;;;0.70;0.70;;;17.80;99.90;;;;;;4975568;28;20450;-60
2023/08/28 13:58:19;;;;;;;0.70;0.70;;;17.70;99.90;;;;;;4958628;28;20475;-61
2023/08/28 14:00:45;;;;;;;0.87;0.87;;;17.70;99.90;;;;;;4975866;28;20377;-64
2023/08/28 14:03:10;;;;;;;0.87;0.87;;;17.70;99.90;;;;;;4975881;28;20901;-61
2023/08/28 14:05:36;;;;;;;0.90;0.90;;;17.60;99.90;;;;;;4974959;28;20550;-60
2023/08/28 14:08:02;;;;;;;0.70;0.70;;;17.50;99.90;;;;;;4958599;28;20246;-61
2023/08/28 14:10:28;;;;;;;1.97;1.20;;;17.50;99.90;;;;;;4975360;28;20637;-61
2023/08/28 14:12:54;;;;;;;1.00;1.00;;;17.40;99.90;;;;;;4975371;28;20493;-61
2023/08/28 14:15:20;;;;;;;0.73;0.73;;;17.40;99.90;;;;;;4975353;28;20207;-61
2023/08/28 14:17:45;;;;;;;0.70;0.70;;;17.40;99.90;;;;;;4975745;28;20187;-60
2023/08/28 14:20:12;;;;;;;1.00;1.00;;;17.40;99.90;;;;;;4975385;28;20400;-60
2023/08/28 14:22:37;;;;;;;1.10;1.10;;;17.40;99.90;;;;;;4975436;28;20693;-61
2023/08/28 14:25:04;;;;;;;1.23;1.13;;;17.40;99.90;;;;;;4975032;28;20427;-61
2023/08/28 14:27:30;;;;;;;0.73;0.70;;;17.40;99.90;;;;;;4975527;28;20739;-60
2023/08/28 14:29:59;;;;;;;0.80;0.80;;;17.40;99.90;;;;;;4975424;28;20437;-65
2023/08/28 14:32:25;;;;;;;0.90;0.90;;;17.40;99.90;;;;;;4975003;28;20256;-61
2023/08/28 14:34:53;;;;;;;0.97;0.97;;;17.40;99.90;;;;;;4974969;28;20436;-59
2023/08/28 14:37:19;;;;;;;0.70;0.70;;;17.50;99.90;;;;;;4975222;28;20417;-60
2023/08/28 14:39:44;;;;;;;0.70;0.70;;;17.50;99.90;;;;;;4975174;28;20464;-61
2023/08/28 14:42:10;;;;;;;0.60;0.60;;;17.60;99.90;;;;;;4975277;28;20250;-61
2023/08/28 14:44:35;;;;;;;0.97;0.97;;;17.60;99.90;;;;;;4974748;28;20184;-61
2023/08/28 14:47:01;;;;;;;1.00;1.00;;;17.60;99.90;;;;;;4974827;28;20262;-60
2023/08/28 14:49:26;;;;;;;0.60;0.60;;;17.60;99.90;;;;;;4975374;28;20173;-61
2023/08/28 14:51:52;;;;;;;0.60;0.60;;;17.50;99.90;;;;;;4974233;28;20178;-60
2023/08/28 14:54:18;;;;;;;0.60;0.50;;;17.50;99.90;;;;;;4974648;28;20190;-60
2023/08/28 14:56:43;;;;;;;0.60;0.60;;;17.40;99.90;;;;;;4974999;28;20179;-62
2023/08/28 14:59:09;;;;;;;0.80;0.80;;;17.40;99.90;;;;;;4975025;28;20744;-61
2023/08/28 15:01:34;;;;;;;0.60;0.60;;;17.30;99.90;;;;;;4974473;28;20201;-60
2023/08/28 15:04:00;;;;;;;0.60;0.60;;;17.30;99.90;;;;;;4974579;28;20178;-61
2023/08/28 15:06:26;;;;;;;0.90;0.90;;;17.30;99.90;;;;;;4974563;28;20222;-61
2023/08/28 15:08:51;;;;;;;0.70;0.70;;;17.30;99.90;;;;;;4976096;28;20187;-61
2023/08/28 15:11:17;;;;;;;0.80;0.80;;;17.30;99.90;;;;;;4968050;28;20461;-61
2023/08/28 15:13:42;;;;;;;0.60;0.60;;;17.30;99.90;;;;;;4964742;28;20191;-60
2023/08/28 15:16:08;;;;;;;1.17;0.90;;;17.20;99.90;;;;;;4973439;28;20274;-61
2023/08/28 15:18:34;;;;;;;0.40;0.40;;;17.10;99.90;;;;;;4974663;28;20191;-61
2023/08/28 15:21:00;;;;;;;0.70;0.70;;;17.20;99.90;;;;;;4974526;28;20168;-61
2023/08/28 15:23:26;;;;;;;0.87;0.87;;;17.20;99.90;;;;;;4974740;28;20293;-62
2023/08/28 15:25:51;;;;;;;0.80;0.80;;;17.10;99.90;;;;;;4973851;28;20511;-60
2023/08/28 15:28:17;;;;;;;0.80;0.80;;;17.10;99.90;;;;;;4974442;28;20180;-62
2023/08/28 15:30:43;;;;;;;0.70;0.70;;;17.10;99.90;;;;;;4974344;28;20182;-60
2023/08/28 15:33:08;;;;;;;0.70;0.70;;;17.10;99.90;;;;;;4974684;28;20174;-61
2023/08/28 15:35:34;;;;;;;1.13;0.80;;;17.00;99.90;;;;;;4973897;28;20199;-60
2023/08/28 15:38:00;;;;;;;1.00;1.00;;;17.00;99.90;;;;;;4974345;28;20178;-60
2023/08/28 15:40:28;;;;;;;0.97;0.97;;;16.90;99.90;;;;;;4973592;28;20590;-61
2023/08/28 15:42:55;;;;;;;0.80;0.80;;;17.00;99.90;;;;;;4974113;28;20221;-60
2023/08/28 15:45:20;;;;;;;0.80;0.80;;;16.90;99.90;;;;;;4974258;28;20519;-61
2023/08/28 15:47:46;;;;;;;0.50;0.50;;;16.90;99.90;;;;;;4974377;28;20956;-60
2023/08/28 15:50:13;;;;;;;0.80;0.80;;;16.90;99.90;;;;;;4974383;28;20178;-61
2023/08/28 15:52:39;;;;;;;1.20;0.77;;;16.90;99.90;;;;;;4973971;28;20171;-61
2023/08/28 15:55:05;;;;;;;0.80;0.80;;;16.90;99.90;;;;;;4973201;28;20457;-64
2023/08/28 15:57:31;;;;;;;1.23;0.80;;;16.90;99.90;;;;;;4974097;28;20174;-60
2023/08/28 15:59:56;;;;;;;1.87;0.83;;;16.90;99.90;;;;;;4973655;28;20623;-59
2023/08/28 16:02:22;;;;;;;0.90;0.90;;;16.90;99.90;;;;;;4974191;28;20182;-60
2023/08/28 16:04:48;;;;;;;0.60;0.60;;;16.90;99.90;;;;;;4977268;28;20194;-61
2023/08/28 16:07:13;;;;;;;0.90;0.90;;;16.90;99.90;;;;;;4977245;28;20200;-61
2023/08/28 16:09:39;;;;;;;0.77;0.77;;;16.90;99.90;;;;;;4977750;28;20170;-59
2023/08/28 16:12:05;;;;;;;1.07;0.97;;;17.00;99.90;;;;;;4978459;28;20185;-60
2023/08/28 16:14:31;;;;;;;0.70;0.70;;;16.90;99.90;;;;;;4977263;28;20183;-60
2023/08/28 16:16:57;;;;;;;0.93;0.93;;;16.90;99.90;;;;;;4977676;28;20957;-60
2023/08/28 16:19:23;;;;;;;0.63;0.63;;;16.90;99.90;;;;;;4977481;28;20216;-60
2023/08/28 16:21:50;;;;;;;0.70;0.70;;;17.00;99.90;;;;;;4977200;28;20203;-60
2023/08/28 16:24:16;;;;;;;0.80;0.80;;;16.90;99.90;;;;;;4976985;28;20421;-60
2023/08/28 16:26:42;;;;;;;1.23;1.17;;;16.90;99.90;;;;;;4977852;28;21006;-60
2023/08/28 16:29:08;;;;;;;1.20;1.20;;;16.90;99.90;;;;;;4977233;28;20186;-60
2023/08/28 16:31:33;;;;;;;0.87;0.87;;;16.90;99.90;;;;;;4977344;28;20182;-60
2023/08/28 16:33:59;;;;;;;0.80;0.80;;;16.90;99.90;;;;;;4977281;28;20926;-61
2023/08/28 16:36:26;;;;;;;0.67;0.67;;;16.90;99.90;;;;;;4977213;28;20284;-61
2023/08/28 16:38:54;;;;;;;0.83;0.80;;;16.80;99.90;;;;;;4977249;28;20206;-61
2023/08/28 16:41:20;;;;;;;0.93;0.93;;;16.80;99.90;;;;;;4976886;28;20402;-61
2023/08/28 16:43:46;;;;;;;0.73;0.73;;;16.70;99.90;;;;;;4976680;28;20390;-61
2023/08/28 16:46:12;;;;;;;0.87;0.87;;;16.70;99.90;;;;;;4976808;28;20494;-60
2023/08/28 16:48:37;;;;;;;1.10;1.10;;;16.60;99.90;;;;;;4977039;28;20539;-60
2023/08/28 16:51:07;;;;;;;0.67;0.67;;;16.70;99.90;;;;;;4977061;28;20173;-61